PWSweather.com
Personal Weather Stations
Station Observations

ChardChardGB

Lat: 50.877408, Lon: -2.94964741

Elevation: 341

Station Type: WS3083

http://www.merriott-astro.co.uk/weather/index.htm

High Low Average
Temperature 56.8°F13.8°C 45.5°F7.5°C 49.2°F9.6°C
Dew Point 38.1°F3.4°C 34.0°F1.1°C 35.6°F2.0°C
Winds 12.9 mph 20.8 kmh 4.8 mph 7.7 kmh 9.0 mph SSE14.5 kmh SSE
Wind Gusts 22.1 mph35.6 kmh 6.9 mph11.1 kmh 13.0 mph20.9 kmh
Humidity 67% 47% 60%
Pressure 30.20 in1022.7 mb 29.99 in1015.6 mb -
Precipitation 0.00 in0.0 mm - -
Hour Temp Dew Point Humidity Winds Wind Gusts Pressure Precip Precip Rate Daily Precip Total
12:00 AM 46.0°F7.8°C 34.6°F1.4°C 64% 8.2 mph SSE13.2 kmh SSE 12.1 mph19.5 kmh 30.20 in1022.7 mb 0.00 in0.0 mm 0.00 in0.0 mm 0.00 in0.0 mm
12:10 AM 46.0°F7.8°C 34.6°F1.4°C 64% 6.9 mph W11.1 kmh W 11.4 mph18.3 kmh 30.20 in1022.7 mb 0.00 in0.0 mm 0.00 in0.0 mm 0.00 in0.0 mm
12:20 AM 45.9°F7.7°C 34.4°F1.3°C 64% 7.3 mph SSW11.7 kmh SSW 12.1 mph19.5 kmh 30.20 in1022.7 mb 0.00 in0.0 mm 0.00 in0.0 mm 0.00 in0.0 mm
12:30 AM 45.9°F7.7°C 34.4°F1.3°C 64% 6.0 mph S9.7 kmh S 9.2 mph14.8 kmh 30.19 in1022.4 mb 0.00 in0.0 mm 0.00 in0.0 mm 0.00 in0.0 mm
12:40 AM 45.7°F7.6°C 34.2°F1.2°C 64% 7.0 mph SSW11.3 kmh SSW 9.8 mph15.8 kmh 30.19 in1022.4 mb 0.00 in0.0 mm 0.00 in0.0 mm 0.00 in0.0 mm
12:50 AM 45.7°F7.6°C 34.6°F1.4°C 65% 6.3 mph SE10.1 kmh SE 8.3 mph13.4 kmh 30.18 in1022.0 mb 0.00 in0.0 mm 0.00 in0.0 mm 0.00 in0.0 mm
01:00 AM 45.5°F7.5°C 34.4°F1.3°C 65% 5.5 mph SW8.9 kmh SW 9.2 mph14.8 kmh 30.18 in1022.0 mb 0.00 in0.0 mm 0.00 in0.0 mm 0.00 in0.0 mm
01:10 AM 45.7°F7.6°C 34.6°F1.4°C 65% 4.9 mph SSE7.9 kmh SSE 9.2 mph14.8 kmh 30.17 in1021.7 mb 0.00 in0.0 mm 0.00 in0.0 mm 0.00 in0.0 mm
01:20 AM 45.9°F7.7°C 34.8°F1.6°C 65% 7.4 mph SE11.9 kmh SE 12.1 mph19.5 kmh 30.17 in1021.7 mb 0.00 in0.0 mm 0.00 in0.0 mm 0.00 in0.0 mm
01:30 AM 45.9°F7.7°C 34.8°F1.6°C 65% 7.3 mph ESE11.7 kmh ESE 12.1 mph19.5 kmh 30.16 in1021.3 mb 0.00 in0.0 mm 0.00 in0.0 mm 0.00 in0.0 mm
01:40 AM 45.9°F7.7°C 34.8°F1.6°C 65% 7.7 mph E12.4 kmh E 9.8 mph15.8 kmh 30.15 in1021.0 mb 0.00 in0.0 mm 0.00 in0.0 mm 0.00 in0.0 mm
01:50 AM 45.7°F7.6°C 35.0°F1.7°C 66% 8.6 mph S13.8 kmh S 15.2 mph24.5 kmh 30.15 in1021.0 mb 0.00 in0.0 mm 0.00 in0.0 mm 0.00 in0.0 mm
02:00 AM 45.7°F7.6°C 35.0°F1.7°C 66% 5.2 mph S8.4 kmh S 8.3 mph13.4 kmh 30.14 in1020.7 mb 0.00 in0.0 mm 0.00 in0.0 mm 0.00 in0.0 mm
02:10 AM 45.9°F7.7°C 35.2°F1.8°C 66% 5.9 mph S9.5 kmh S 8.3 mph13.4 kmh 30.14 in1020.7 mb 0.00 in0.0 mm 0.00 in0.0 mm 0.00 in0.0 mm
02:20 AM 45.9°F7.7°C 34.8°F1.6°C 65% 4.8 mph SSW7.7 kmh SSW 6.9 mph11.1 kmh 30.15 in1021.0 mb 0.00 in0.0 mm 0.00 in0.0 mm 0.00 in0.0 mm
02:30 AM 45.9°F7.7°C 34.8°F1.6°C 65% 7.0 mph S11.3 kmh S 11.4 mph18.3 kmh 30.14 in1020.7 mb 0.00 in0.0 mm 0.00 in0.0 mm 0.00 in0.0 mm
02:40 AM 46.0°F7.8°C 34.9°F1.6°C 65% 5.9 mph S9.5 kmh S 7.6 mph12.2 kmh 30.13 in1020.3 mb 0.00 in0.0 mm 0.00 in0.0 mm 0.00 in0.0 mm
02:50 AM 46.4°F8.0°C 35.3°F1.8°C 65% 8.2 mph WSW13.2 kmh WSW 13.6 mph21.9 kmh 30.12 in1020.0 mb 0.00 in0.0 mm 0.00 in0.0 mm 0.00 in0.0 mm
03:00 AM 46.2°F7.9°C 34.7°F1.5°C 64% 7.0 mph SW11.3 kmh SW 12.1 mph19.5 kmh 30.11 in1019.6 mb 0.00 in0.0 mm 0.00 in0.0 mm 0.00 in0.0 mm
03:10 AM 46.2°F7.9°C 35.1°F1.7°C 65% 8.0 mph SE12.9 kmh SE 10.7 mph17.2 kmh 30.11 in1019.6 mb 0.00 in0.0 mm 0.00 in0.0 mm 0.00 in0.0 mm
03:20 AM 46.2°F7.9°C 35.1°F1.7°C 65% 7.2 mph SSE11.6 kmh SSE 13.6 mph21.9 kmh 30.11 in1019.6 mb 0.00 in0.0 mm 0.00 in0.0 mm 0.00 in0.0 mm
03:30 AM 46.2°F7.9°C 35.1°F1.7°C 65% 8.6 mph S13.8 kmh S 16.8 mph27.0 kmh 30.11 in1019.6 mb 0.00 in0.0 mm 0.00 in0.0 mm 0.00 in0.0 mm
03:40 AM 46.2°F7.9°C 34.7°F1.5°C 64% 8.7 mph E14.0 kmh E 13.0 mph20.9 kmh 30.10 in1019.3 mb 0.00 in0.0 mm 0.00 in0.0 mm 0.00 in0.0 mm
03:50 AM 46.0°F7.8°C 34.9°F1.6°C 65% 6.8 mph SSE10.9 kmh SSE 9.8 mph15.8 kmh 30.10 in1019.3 mb 0.00 in0.0 mm 0.00 in0.0 mm 0.00 in0.0 mm
04:00 AM 46.0°F7.8°C 34.9°F1.6°C 65% 9.8 mph SE15.8 kmh SE 19.0 mph30.6 kmh 30.09 in1019.0 mb 0.00 in0.0 mm 0.00 in0.0 mm 0.00 in0.0 mm
04:10 AM 45.9°F7.7°C 35.2°F1.8°C 66% 8.3 mph S13.4 kmh S 9.8 mph15.8 kmh 30.09 in1019.0 mb 0.00 in0.0 mm 0.00 in0.0 mm 0.00 in0.0 mm
04:20 AM 45.9°F7.7°C 35.2°F1.8°C 66% 8.5 mph SE13.7 kmh SE 10.7 mph17.2 kmh 30.09 in1019.0 mb 0.00 in0.0 mm 0.00 in0.0 mm 0.00 in0.0 mm
04:30 AM 45.7°F7.6°C 35.0°F1.7°C 66% 7.3 mph E11.7 kmh E 12.1 mph19.5 kmh 30.09 in1019.0 mb 0.00 in0.0 mm 0.00 in0.0 mm 0.00 in0.0 mm
04:40 AM 45.7°F7.6°C 35.4°F1.9°C 67% 9.7 mph W15.6 kmh W 14.5 mph23.3 kmh 30.09 in1019.0 mb 0.00 in0.0 mm 0.00 in0.0 mm 0.00 in0.0 mm
04:50 AM 45.7°F7.6°C 35.0°F1.7°C 66% 8.8 mph SSE14.2 kmh SSE 11.4 mph18.3 kmh 30.09 in1019.0 mb 0.00 in0.0 mm 0.00 in0.0 mm 0.00 in0.0 mm
05:00 AM 45.7°F7.6°C 35.0°F1.7°C 66% 8.1 mph S13.0 kmh S 13.6 mph21.9 kmh 30.08 in1018.6 mb 0.00 in0.0 mm 0.00 in0.0 mm 0.00 in0.0 mm
05:10 AM 45.7°F7.6°C 34.6°F1.4°C 65% 9.4 mph SE15.1 kmh SE 14.5 mph23.3 kmh 30.08 in1018.6 mb 0.00 in0.0 mm 0.00 in0.0 mm 0.00 in0.0 mm
05:20 AM 45.9°F7.7°C 34.8°F1.6°C 65% 6.9 mph SE11.1 kmh SE 13.6 mph21.9 kmh 30.07 in1018.3 mb 0.00 in0.0 mm 0.00 in0.0 mm 0.00 in0.0 mm
05:30 AM 45.9°F7.7°C 34.4°F1.3°C 64% 7.3 mph E11.7 kmh E 11.4 mph18.3 kmh 30.08 in1018.6 mb 0.00 in0.0 mm 0.00 in0.0 mm 0.00 in0.0 mm
05:40 AM 45.9°F7.7°C 34.0°F1.1°C 63% 7.7 mph S12.4 kmh S 10.7 mph17.2 kmh 30.07 in1018.3 mb 0.00 in0.0 mm 0.00 in0.0 mm 0.00 in0.0 mm
05:50 AM 45.9°F7.7°C 34.0°F1.1°C 63% 6.4 mph E10.3 kmh E 9.8 mph15.8 kmh 30.07 in1018.3 mb 0.00 in0.0 mm 0.00 in0.0 mm 0.00 in0.0 mm
06:00 AM 46.0°F7.8°C 34.2°F1.2°C 63% 7.4 mph S11.9 kmh S 9.8 mph15.8 kmh 30.07 in1018.3 mb 0.00 in0.0 mm 0.00 in0.0 mm 0.00 in0.0 mm
06:10 AM 46.2°F7.9°C 34.3°F1.3°C 63% 8.4 mph SE13.5 kmh SE 13.0 mph20.9 kmh 30.07 in1018.3 mb 0.00 in0.0 mm 0.00 in0.0 mm 0.00 in0.0 mm
06:20 AM 46.4°F8.0°C 34.5°F1.4°C 63% 9.4 mph SSW15.1 kmh SSW 14.5 mph23.3 kmh 30.07 in1018.3 mb 0.00 in0.0 mm 0.00 in0.0 mm 0.00 in0.0 mm
06:30 AM 46.9°F8.3°C 35.0°F1.7°C 63% 6.6 mph ESE10.6 kmh ESE 9.8 mph15.8 kmh 30.07 in1018.3 mb 0.00 in0.0 mm 0.00 in0.0 mm 0.00 in0.0 mm
06:40 AM 47.5°F8.6°C 35.1°F1.7°C 62% 7.5 mph S12.1 kmh S 14.5 mph23.3 kmh 30.07 in1018.3 mb 0.00 in0.0 mm 0.00 in0.0 mm 0.00 in0.0 mm
06:50 AM 48.0°F8.9°C 35.2°F1.8°C 61% 8.0 mph SSW12.9 kmh SSW 15.2 mph24.5 kmh 30.08 in1018.6 mb 0.00 in0.0 mm 0.00 in0.0 mm 0.00 in0.0 mm
07:00 AM 48.6°F9.2°C 35.7°F2.1°C 61% 6.5 mph SSE10.5 kmh SSE 9.8 mph15.8 kmh 30.07 in1018.3 mb 0.00 in0.0 mm 0.00 in0.0 mm 0.00 in0.0 mm
07:10 AM 48.9°F9.4°C 35.7°F2.1°C 60% 7.3 mph S11.7 kmh S 22.1 mph35.6 kmh 30.07 in1018.3 mb 0.00 in0.0 mm 0.00 in0.0 mm 0.00 in0.0 mm
07:20 AM 49.6°F9.8°C 35.5°F1.9°C 58% 9.4 mph S15.1 kmh S 22.1 mph35.6 kmh 30.07 in1018.3 mb 0.00 in0.0 mm 0.00 in0.0 mm 0.00 in0.0 mm
07:30 AM 49.5°F9.7°C 35.3°F1.8°C 58% 8.6 mph SE13.8 kmh SE 15.2 mph24.5 kmh 30.06 in1017.9 mb 0.00 in0.0 mm 0.00 in0.0 mm 0.00 in0.0 mm
07:40 AM 49.5°F9.7°C 35.7°F2.1°C 59% 8.8 mph SSE14.2 kmh SSE 11.4 mph18.3 kmh 30.06 in1017.9 mb 0.00 in0.0 mm 0.00 in0.0 mm 0.00 in0.0 mm
07:50 AM 49.6°F9.8°C 36.3°F2.4°C 60% 9.0 mph SE14.5 kmh SE 15.2 mph24.5 kmh 30.05 in1017.6 mb 0.00 in0.0 mm 0.00 in0.0 mm 0.00 in0.0 mm
08:00 AM 50.0°F10.0°C 36.2°F2.3°C 59% 9.2 mph SE14.8 kmh SE 14.5 mph23.3 kmh 30.05 in1017.6 mb 0.00 in0.0 mm 0.00 in0.0 mm 0.00 in0.0 mm
08:10 AM 50.4°F10.2°C 36.2°F2.3°C 58% 10.6 mph SE17.1 kmh SE 15.9 mph25.6 kmh 30.05 in1017.6 mb 0.00 in0.0 mm 0.00 in0.0 mm 0.00 in0.0 mm
08:20 AM 50.5°F10.3°C 36.3°F2.4°C 58% 11.0 mph E17.7 kmh E 19.7 mph31.7 kmh 30.04 in1017.3 mb 0.00 in0.0 mm 0.00 in0.0 mm 0.00 in0.0 mm
08:30 AM 51.3°F10.7°C 37.0°F2.8°C 58% 8.7 mph SSW14.0 kmh SSW 14.5 mph23.3 kmh 30.04 in1017.3 mb 0.00 in0.0 mm 0.00 in0.0 mm 0.00 in0.0 mm
08:40 AM 52.3°F11.3°C 37.1°F2.8°C 56% 8.9 mph ESE14.3 kmh ESE 13.6 mph21.9 kmh 30.03 in1016.9 mb 0.00 in0.0 mm 0.00 in0.0 mm 0.00 in0.0 mm
08:50 AM 52.5°F11.4°C 36.8°F2.7°C 55% 10.2 mph SE16.4 kmh SE 15.9 mph25.6 kmh 30.03 in1016.9 mb 0.00 in0.0 mm 0.00 in0.0 mm 0.00 in0.0 mm
09:00 AM 53.4°F11.9°C 37.7°F3.2°C 55% 9.6 mph SE15.4 kmh SE 15.2 mph24.5 kmh 30.02 in1016.6 mb 0.00 in0.0 mm 0.00 in0.0 mm 0.00 in0.0 mm
09:10 AM 53.8°F12.1°C 37.5°F3.1°C 54% 8.7 mph SSE14.0 kmh SSE 12.1 mph19.5 kmh 30.02 in1016.6 mb 0.00 in0.0 mm 0.00 in0.0 mm 0.00 in0.0 mm
09:20 AM 54.7°F12.6°C 36.9°F2.7°C 51% 10.1 mph SSE16.3 kmh SSE 15.2 mph24.5 kmh 30.02 in1016.6 mb 0.00 in0.0 mm 0.00 in0.0 mm 0.00 in0.0 mm
09:30 AM 54.7°F12.6°C 36.4°F2.4°C 50% 9.3 mph SE15.0 kmh SE 14.5 mph23.3 kmh 30.00 in1015.9 mb 0.00 in0.0 mm 0.00 in0.0 mm 0.00 in0.0 mm
09:40 AM 54.9°F12.7°C 36.6°F2.6°C 50% 11.9 mph S19.2 kmh S 21.3 mph34.3 kmh 30.01 in1016.3 mb 0.00 in0.0 mm 0.00 in0.0 mm 0.00 in0.0 mm
09:50 AM 55.8°F13.2°C 37.4°F3.0°C 50% 10.1 mph SE16.3 kmh SE 14.5 mph23.3 kmh 30.01 in1016.3 mb 0.00 in0.0 mm 0.00 in0.0 mm 0.00 in0.0 mm
10:00 AM 56.1°F13.4°C 37.7°F3.2°C 50% 9.7 mph S15.6 kmh S 11.4 mph18.3 kmh 30.01 in1016.3 mb 0.00 in0.0 mm 0.00 in0.0 mm 0.00 in0.0 mm
10:10 AM 56.5°F13.6°C 38.1°F3.4°C 50% 9.0 mph ESE14.5 kmh ESE 13.6 mph21.9 kmh 30.01 in1016.3 mb 0.00 in0.0 mm 0.00 in0.0 mm 0.00 in0.0 mm
10:20 AM 56.1°F13.4°C 36.2°F2.3°C 47% 8.9 mph S14.3 kmh S 13.6 mph21.9 kmh 30.02 in1016.6 mb 0.00 in0.0 mm 0.00 in0.0 mm 0.00 in0.0 mm
10:30 AM 56.3°F13.5°C 37.4°F3.0°C 49% 10.1 mph SE16.3 kmh SE 15.2 mph24.5 kmh 30.02 in1016.6 mb 0.00 in0.0 mm 0.00 in0.0 mm 0.00 in0.0 mm
10:40 AM 56.5°F13.6°C 37.0°F2.8°C 48% 10.0 mph S16.1 kmh S 19.0 mph30.6 kmh 30.01 in1016.3 mb 0.00 in0.0 mm 0.00 in0.0 mm 0.00 in0.0 mm
10:50 AM 55.4°F13.0°C 36.0°F2.2°C 48% 12.4 mph S20.0 kmh S 19.0 mph30.6 kmh 30.01 in1016.3 mb 0.00 in0.0 mm 0.00 in0.0 mm 0.00 in0.0 mm
11:00 AM 55.0°F12.8°C 36.8°F2.7°C 50% 11.7 mph SSE18.8 kmh SSE 15.9 mph25.6 kmh 30.00 in1015.9 mb 0.00 in0.0 mm 0.00 in0.0 mm 0.00 in0.0 mm
11:10 AM 56.8°F13.8°C 37.4°F3.0°C 48% 12.1 mph NE19.5 kmh NE 20.6 mph33.2 kmh 30.00 in1015.9 mb 0.00 in0.0 mm 0.00 in0.0 mm 0.00 in0.0 mm
11:20 AM 56.7°F13.7°C 36.7°F2.6°C 47% 11.7 mph SSW18.8 kmh SSW 18.3 mph29.5 kmh 30.00 in1015.9 mb 0.00 in0.0 mm 0.00 in0.0 mm 0.00 in0.0 mm
11:30 AM 55.9°F13.3°C 36.5°F2.5°C 48% 12.9 mph SE20.8 kmh SE 18.3 mph29.5 kmh 30.00 in1015.9 mb 0.00 in0.0 mm 0.00 in0.0 mm 0.00 in0.0 mm
11:40 AM 56.3°F13.5°C 36.9°F2.7°C 48% 11.4 mph SE18.3 kmh SE 15.9 mph25.6 kmh 30.00 in1015.9 mb 0.00 in0.0 mm 0.00 in0.0 mm 0.00 in0.0 mm
11:50 AM 56.7°F13.7°C 37.7°F3.2°C 49% 10.8 mph SE17.4 kmh SE 15.2 mph24.5 kmh 29.99 in1015.6 mb 0.00 in0.0 mm 0.00 in0.0 mm 0.00 in0.0 mm
12:00 PM 56.8°F13.8°C 37.9°F3.3°C 49% 10.5 mph SSW16.9 kmh SSW 15.2 mph24.5 kmh 29.99 in1015.6 mb 0.00 in0.0 mm 0.00 in0.0 mm 0.00 in0.0 mm